Time;durP1;ratioP1;P1;durP2;ratioP2;P2;SDS_P1;SDS_P2;PMS_P1;PMS_P2;Temp;Humidity;BMP_temperature;BMP_pressure;BME280_temperature;BME280_humidity;BME280_pressure;Samples;Min_cycle;Max_cycle;Signal;HPM_P1;HPM_P2
2022/09/21 03:43:39;;;;;;;;;6.00;5.50;;;;;14.59;57.54;101771.56;4842631;29;45780;-76
2022/09/21 03:46:04;;;;;;;;;7.00;6.00;;;;;14.57;57.85;101773.47;4842475;29;46088;-74
2022/09/21 03:48:31;;;;;;;;;10.00;7.00;;;;;14.55;57.73;101774.53;4841702;29;45654;-76
2022/09/21 03:50:57;;;;;;;;;11.50;11.25;;;;;14.53;57.82;101771.13;4842435;29;45895;-75
2022/09/21 03:53:22;;;;;;;;;10.00;9.75;;;;;14.55;57.62;101772.72;4842584;29;46206;-77
2022/09/21 03:55:48;;;;;;;;;11.50;10.00;;;;;14.39;58.01;101752.78;4842277;29;45808;-76
2022/09/21 03:58:15;;;;;;;;;10.00;8.50;;;;;14.46;58.13;101772.53;4842671;29;45599;-74
2022/09/21 04:00:41;;;;;;;;;18.25;15.75;;;;;14.46;58.25;101783.06;4842238;29;46444;-75
2022/09/21 04:03:06;;;;;;;;;19.00;17.00;;;;;14.45;58.48;101776.94;4825312;29;47290;-75
2022/09/21 04:05:31;;;;;;;;;18.25;14.75;;;;;14.43;58.53;101781.47;4842288;29;45716;-75
2022/09/21 04:07:57;;;;;;;;;20.00;18.50;;;;;14.41;58.34;101779.91;4842564;29;45983;-76
2022/09/21 04:10:28;;;;;;;;;29.75;23.50;;;;;14.27;58.45;101762.34;4840669;29;46413;-77
2022/09/21 04:12:56;;;;;;;;;13.00;12.25;;;;;14.37;58.53;101778.41;4841953;29;46294;-75
2022/09/21 04:15:22;;;;;;;;;11.25;9.25;;;;;14.36;58.68;101779.34;4840992;29;45866;-76
2022/09/21 04:17:51;;;;;;;;;14.00;11.25;;;;;14.32;58.39;101765.50;4842051;29;45926;-78
2022/09/21 04:20:17;;;;;;;;;8.00;7.00;;;;;14.33;58.73;101777.75;4841401;29;46398;-75
2022/09/21 04:22:43;;;;;;;;;10.00;8.25;;;;;14.32;58.82;101765.50;4841666;29;46038;-76
2022/09/21 04:31:35;;;;;;;;;11.00;9.00;;;;;14.28;58.73;101774.59;4841795;29;45693;-79
2022/09/21 04:34:03;;;;;;;;;9.25;8.25;;;;;14.24;58.54;101763.41;4841964;29;46155;-78
2022/09/21 04:36:29;;;;;;;;;9.50;7.00;;;;;14.25;58.44;101772.97;4841244;29;45610;-76
2022/09/21 04:38:54;;;;;;;;;8.50;6.25;;;;;14.25;58.72;101766.91;4841976;29;45580;-76
2022/09/21 04:41:22;;;;;;;;;10.00;7.75;;;;;14.21;58.93;101766.25;4843044;29;46633;-76
2022/09/21 04:43:48;;;;;;;;;7.75;7.25;;;;;14.22;58.61;101775.84;4860375;29;47150;-77
2022/09/21 04:46:20;;;;;;;;;7.50;7.50;;;;;14.19;58.93;101769.94;4860423;29;45661;-76
2022/09/21 04:48:46;;;;;;;;;9.50;8.00;;;;;14.17;58.83;101775.31;4844009;29;45653;-75
2022/09/21 04:51:13;;;;;;;;;7.50;6.75;;;;;14.16;58.81;101778.88;4859767;29;47827;-77
2022/09/21 04:53:41;;;;;;;;;7.50;6.00;;;;;14.18;59.00;101782.28;4860541;29;46163;-76
2022/09/21 04:56:08;;;;;;;;;8.00;5.00;;;;;14.13;59.17;101779.09;4860500;29;45657;-76
2022/09/21 04:58:33;;;;;;;;;6.00;6.00;;;;;14.09;59.32;101774.97;4860618;29;45677;-77
2022/09/21 05:01:03;;;;;;;;;5.25;5.00;;;;;14.13;59.07;101788.81;4859836;29;45526;-74
2022/09/21 05:03:28;;;;;;;;;7.50;7.50;;;;;14.11;59.39;101775.72;4843861;29;46144;-77
2022/09/21 05:05:55;;;;;;;;;9.00;6.00;;;;;14.10;59.36;101786.34;4860644;29;45675;-77
2022/09/21 05:11:09;;;;;;;;;5.75;5.00;;;;;14.04;59.37;101779.69;4859873;29;45713;-75
2022/09/21 05:13:35;;;;;;;;;8.75;6.25;;;;;14.02;59.53;101786.03;4859886;29;47639;-75
2022/09/21 05:16:00;;;;;;;;;9.25;9.00;;;;;14.01;59.63;101787.81;4858918;29;45702;-76
2022/09/21 05:18:26;;;;;;;;;8.75;6.75;;;;;13.99;59.22;101775.69;4860016;29;45519;-78
2022/09/21 05:20:55;;;;;;;;;9.75;6.50;;;;;13.97;59.29;101783.72;4859405;29;47518;-77
2022/09/21 05:23:22;;;;;;;;;10.75;8.00;;;;;13.98;59.24;101774.84;4859487;29;46344;-76
2022/09/21 05:25:48;;;;;;;;;7.25;5.75;;;;;13.98;59.10;101776.66;4842640;29;45592;-75
2022/09/21 05:28:14;;;;;;;;;9.75;9.25;;;;;13.97;59.84;101778.44;4859659;29;45908;-76
2022/09/21 05:30:40;;;;;;;;;7.00;6.00;;;;;13.96;59.51;101783.81;4842729;29;46892;-75
2022/09/21 05:33:10;;;;;;;;;6.00;5.00;;;;;13.92;59.62;101788.44;4859435;29;46370;-77
2022/09/21 05:35:54;;;;;;;;;7.50;6.25;;;;;13.88;59.78;101785.16;4859776;29;45583;-78
2022/09/21 05:38:19;;;;;;;;;8.00;8.00;;;;;13.83;59.98;101778.50;4859478;29;45830;-78
2022/09/21 05:40:46;;;;;;;;;6.50;5.00;;;;;13.87;59.78;101780.00;4859115;29;47494;-78
2022/09/21 05:43:12;;;;;;;;;7.50;7.25;;;;;13.80;60.02;101776.91;4858903;29;46487;-81
2022/09/21 05:45:53;;;;;;;;;5.25;5.00;;;;;13.82;60.46;101784.69;4859636;29;45765;-76
2022/09/21 05:48:24;;;;;;;;;9.00;7.50;;;;;13.73;60.13;101772.16;4857977;29;45807;-77
2022/09/21 05:51:00;;;;;;;;;9.00;6.25;;;;;13.81;60.08;101783.03;4857567;29;45897;-75
2022/09/21 05:53:44;;;;;;;;;6.50;6.00;;;;;13.81;60.20;101785.66;4858888;29;46070;-81
2022/09/21 05:56:18;;;;;;;;;8.00;6.25;;;;;13.81;60.04;101788.31;4858031;29;45943;-75
2022/09/21 05:59:05;;;;;;;;;10.00;8.50;;;;;13.81;60.13;101783.03;4858888;29;45744;-77
2022/09/21 06:01:56;;;;;;;;;10.50;8.75;;;;;13.81;60.14;101785.66;4858824;29;46437;-75
2022/09/21 06:04:22;;;;;;;;;6.25;6.25;;;;;13.81;60.27;101785.66;4858850;29;46200;-76
2022/09/21 06:06:47;;;;;;;;;8.50;6.00;;;;;13.82;60.12;101787.34;4859469;29;45795;-77
2022/09/21 06:09:15;;;;;;;;;10.00;6.50;;;;;13.81;60.33;101783.88;4859038;29;45734;-78
2022/09/21 06:11:40;;;;;;;;;9.00;8.00;;;;;13.82;60.10;101782.06;4858074;29;45624;-78
2022/09/21 06:14:06;;;;;;;;;8.25;5.25;;;;;13.83;60.54;101784.59;4841843;29;46348;-77
2022/09/21 06:16:42;;;;;;;;;9.75;8.50;;;;;13.81;60.58;101780.41;4858913;29;45618;-78
2022/09/21 06:19:11;;;;;;;;;7.25;6.25;;;;;13.81;60.67;101778.63;4859933;29;45847;-78
2022/09/21 06:21:37;;;;;;;;;7.50;7.50;;;;;13.82;60.57;101782.91;4858695;29;47379;-79
2022/09/21 06:24:05;;;;;;;;;10.00;8.50;;;;;13.76;60.46;101780.72;4841095;29;48241;-79
2022/09/21 06:26:30;;;;;;;;;9.75;9.00;;;;;13.82;60.61;101793.44;4858134;29;45704;-77
2022/09/21 06:28:55;;;;;;;;;8.00;4.50;;;;;13.83;60.58;101794.28;4858849;29;45861;-78
2022/09/21 06:31:28;;;;;;;;;8.25;7.75;;;;;13.73;60.32;101780.91;4860784;29;46412;-80
2022/09/21 06:33:54;;;;;;;;;10.00;8.25;;;;;13.76;60.65;101782.50;4858403;29;47104;-79
2022/09/21 06:36:19;;;;;;;;;9.75;9.00;;;;;13.75;60.51;101784.28;4860932;29;46047;-77
2022/09/21 06:38:44;;;;;;;;;11.75;11.00;;;;;13.77;60.26;101784.16;4859462;29;45781;-81
2022/09/21 06:41:10;;;;;;;;;11.25;9.00;;;;;13.81;60.64;101790.94;4858516;29;47393;-80
2022/09/21 06:46:57;;;;;;;;;11.75;10.50;;;;;13.84;60.77;101790.72;4859610;29;45900;-83
2022/09/21 06:49:22;;;;;;;;;12.25;10.25;;;;;13.85;60.05;101801.16;4859859;29;45747;-83
2022/09/21 06:51:48;;;;;;;;;13.25;11.00;;;;;13.82;60.75;101792.59;4859251;29;45644;-78
2022/09/21 06:54:14;;;;;;;;;16.50;10.75;;;;;13.81;60.67;101789.16;4859332;29;47064;-84
2022/09/21 06:56:42;;;;;;;;;12.00;11.50;;;;;13.88;60.30;101800.09;4859551;29;45841;-82
2022/09/21 06:59:07;;;;;;;;;11.25;9.50;;;;;13.89;60.33;101793.91;4859324;29;45675;-79
2022/09/21 07:01:33;;;;;;;;;11.25;10.00;;;;;13.91;60.32;101799.06;4861346;29;46445;-77
2022/09/21 07:03:58;;;;;;;;;14.25;12.00;;;;;13.93;60.66;101794.56;4862034;29;46036;-78
2022/09/21 07:06:23;;;;;;;;;17.75;12.50;;;;;13.94;60.58;101801.50;4862222;29;45686;-78
2022/09/21 07:08:52;;;;;;;;;10.00;10.00;;;;;13.96;60.60;101792.56;4861999;29;45883;-78
2022/09/21 07:11:24;;;;;;;;;14.00;12.75;;;;;14.00;60.32;101790.56;4861290;29;47536;-77
2022/09/21 07:17:12;;;;;;;;;14.00;12.00;;;;;14.03;60.74;101798.28;4862029;29;45759;-79
2022/09/21 07:19:37;;;;;;;;;14.75;12.50;;;;;14.03;60.34;101787.72;4862584;29;45578;-80
2022/09/21 07:22:03;;;;;;;;;12.00;12.00;;;;;14.05;60.57;101789.31;4862692;29;46689;-81
2022/09/21 07:24:28;;;;;;;;;16.75;14.00;;;;;14.06;60.08;101784.88;4845526;29;45711;-78
2022/09/21 07:26:54;;;;;;;;;16.75;12.00;;;;;14.06;60.20;101775.19;4863053;29;45718;-80
2022/09/21 07:29:19;;;;;;;;;14.50;12.25;;;;;14.10;60.24;101789.00;4862313;29;45837;-79
2022/09/21 07:31:45;;;;;;;;;16.50;14.00;;;;;14.08;60.11;101777.72;4844694;29;47885;-79
2022/09/21 07:34:11;;;;;;;;;13.50;12.00;;;;;14.15;60.04;101787.72;4844854;29;47337;-79
2022/09/21 07:36:36;;;;;;;;;15.25;12.25;;;;;14.18;60.43;101789.34;4861463;29;45699;-78
2022/09/21 07:39:02;;;;;;;;;16.25;13.25;;;;;14.19;59.91;101789.25;4861918;29;45748;-75
2022/09/21 07:41:28;;;;;;;;;15.75;13.75;;;;;14.19;59.77;101786.59;4860643;29;45793;-81
2022/09/21 07:47:15;;;;;;;;;13.50;13.25;;;;;14.22;59.83;101775.84;4861633;29;45966;-79
2022/09/21 07:49:41;;;;;;;;;16.75;14.50;;;;;14.26;59.71;101785.22;4861532;29;45653;-79
2022/09/21 07:52:07;;;;;;;;;15.50;12.75;;;;;14.27;59.96;101773.75;4861078;29;45981;-78
2022/09/21 07:54:33;;;;;;;;;14.00;13.00;;;;;14.32;59.68;101778.69;4861589;29;45797;-78
2022/09/21 07:59:44;;;;;;;;;14.25;12.75;;;;;14.41;59.33;101775.47;4861407;29;45671;-82
2022/09/21 08:02:10;;;;;;;;;16.75;15.00;;;;;14.45;59.25;101770.84;4859497;29;47207;-78
2022/09/21 08:04:36;;;;;;;;;15.50;13.75;;;;;14.39;58.95;101763.34;4861198;29;45641;-81
2022/09/21 08:07:01;;;;;;;;;14.50;12.75;;;;;14.49;58.89;101775.78;4861743;29;45797;-84
2022/09/21 08:09:26;;;;;;;;;13.00;11.00;;;;;14.51;59.15;101773.91;4844919;29;45606;-83
2022/09/21 08:11:53;;;;;;;;;13.75;12.00;;;;;14.54;58.96;101778.94;4844347;29;47852;-85
2022/09/21 08:17:41;;;;;;;;;17.75;15.00;;;;;14.61;58.54;101779.38;4862659;29;45933;-79
2022/09/21 08:20:06;;;;;;;;;14.50;13.00;;;;;14.58;58.73;101766.38;4861363;29;45698;-86
2022/09/21 08:22:32;;;;;;;;;15.50;14.00;;;;;14.64;58.53;101777.34;4863314;29;47256;-84
2022/09/21 08:24:57;;;;;;;;;19.75;15.00;;;;;14.67;58.11;101771.88;4848541;29;46604;-81
2022/09/21 08:27:24;;;;;;;;;21.00;16.75;;;;;14.66;58.39;101774.63;4866795;29;45789;-86
2022/09/21 08:29:55;;;;;;;;;19.00;15.75;;;;;14.71;58.28;101777.78;4863498;29;45624;-81
2022/09/21 08:32:23;;;;;;;;;16.25;14.50;;;;;14.76;57.99;101778.31;4859943;29;47453;-80
2022/09/21 08:34:48;;;;;;;;;19.50;15.75;;;;;14.81;58.18;101784.09;4862989;29;48538;-82
2022/09/21 08:37:14;;;;;;;;;15.00;13.00;;;;;14.85;57.79;101780.28;4860829;29;46482;-81
2022/09/21 08:39:40;;;;;;;;;15.50;14.50;;;;;14.81;57.95;101770.91;4863266;29;45632;-79
2022/09/21 08:49:00;;;;;;;;;18.25;17.00;;;;;14.99;57.66;101774.91;4861157;29;45554;-77
2022/09/21 08:51:30;;;;;;;;;17.25;13.75;;;;;15.02;57.46;101776.47;4859688;29;45735;-74
2022/09/21 08:54:02;;;;;;;;;17.50;15.00;;;;;15.08;57.17;101770.75;4859859;29;45664;-76
2022/09/21 08:56:28;;;;;;;;;14.25;13.75;;;;;15.09;57.25;101783.84;4859961;29;46167;-79
2022/09/21 08:58:54;;;;;;;;;14.75;13.25;;;;;15.18;57.02;101784.13;4827241;29;45759;-78
2022/09/21 09:01:19;;;;;;;;;16.25;14.75;;;;;15.20;56.89;101785.72;4859702;29;45915;-78
2022/09/21 09:04:15;;;;;;;;;15.25;13.00;;;;;15.24;56.43;101778.41;4860410;29;47280;-81
2022/09/21 09:06:50;;;;;;;;;14.00;12.50;;;;;15.29;56.56;101784.22;4858793;29;45662;-75
2022/09/21 09:09:49;;;;;;;;;13.00;9.25;;;;;15.32;56.17;101781.38;4843048;29;45852;-77
2022/09/21 09:16:06;;;;;;;;;16.00;15.00;;;;;15.41;56.02;101799.19;4859401;29;46065;-76
2022/09/21 09:18:46;;;;;;;;;15.50;13.25;;;;;15.44;55.92;101791.00;4859910;29;46686;-77
2022/09/21 09:21:18;;;;;;;;;15.00;12.25;;;;;15.45;55.76;101790.06;4859645;29;45605;-76
2022/09/21 09:23:59;;;;;;;;;12.25;11.50;;;;;15.50;55.89;101787.94;4859927;29;45533;-77
2022/09/21 09:26:49;;;;;;;;;13.25;12.00;;;;;15.55;55.83;101782.38;4842484;29;47611;-73
2022/09/21 09:32:48;;;;;;;;;9.25;8.25;;;;;15.64;55.46;101779.91;4859400;29;45923;-76
2022/09/21 09:35:51;;;;;;;;;12.75;12.25;;;;;15.68;55.48;101777.84;4859624;29;45694;-77
2022/09/21 09:38:21;;;;;;;;;13.50;11.50;;;;;15.72;55.27;101784.59;4842715;29;46341;-76
2022/09/21 09:41:23;;;;;;;;;14.00;8.50;;;;;15.78;54.92;101785.00;4842473;29;46415;-78
2022/09/21 09:44:13;;;;;;;;;8.25;8.25;;;;;15.84;54.93;101773.97;4859444;29;45570;-76
2022/09/21 09:46:57;;;;;;;;;10.50;8.75;;;;;15.90;54.72;101767.38;4859594;29;45666;-74
2022/09/21 09:49:51;;;;;;;;;12.50;10.25;;;;;15.95;54.37;101776.66;4859466;29;46444;-76
2022/09/21 09:52:17;;;;;;;;;8.25;7.75;;;;;15.95;54.36;101776.66;4765231;29;46578;-73
2022/09/21 09:54:43;;;;;;;;;10.25;8.75;;;;;16.06;54.34;101781.13;4765607;29;45763;-76
2022/09/21 09:57:10;;;;;;;;;8.50;7.25;;;;;16.10;53.63;101782.59;4765195;29;45786;-74
2022/09/21 09:59:47;;;;;;;;;9.00;8.00;;;;;16.15;54.02;101775.16;4765689;29;45721;-77
2022/09/21 10:02:23;;;;;;;;;7.00;7.00;;;;;16.21;53.64;101771.19;4765090;29;46318;-75
2022/09/21 10:05:07;;;;;;;;;8.75;7.75;;;;;16.28;53.34;101775.06;4765540;29;45640;-76
2022/09/21 10:07:41;;;;;;;;;11.00;8.75;;;;;16.29;52.94;101764.38;4765033;29;46148;-75
2022/09/21 10:10:33;;;;;;;;;10.25;8.00;;;;;16.33;52.76;101768.47;4765220;29;47603;-75
2022/09/21 10:16:22;;;;;;;;;12.00;11.25;;;;;16.43;52.84;101767.75;4765220;29;45898;-75
2022/09/21 10:18:51;;;;;;;;;8.25;8.00;;;;;16.47;52.42;101767.38;4765555;29;45780;-76
2022/09/21 10:21:22;;;;;;;;;7.00;7.00;;;;;16.52;52.44;101753.81;4764653;29;47416;-76
2022/09/21 10:23:51;;;;;;;;;8.25;7.25;;;;;16.58;51.87;101759.47;4764921;29;46473;-76
2022/09/21 10:26:18;;;;;;;;;8.00;7.25;;;;;16.61;51.88;101756.63;4765584;29;45666;-75
2022/09/21 10:32:11;;;;;;;;;6.50;6.50;;;;;16.71;51.59;101762.03;4857816;29;45673;-79
2022/09/21 10:34:39;;;;;;;;;6.00;6.00;;;;;16.69;51.47;101756.84;4859036;29;47338;-77
2022/09/21 10:37:27;;;;;;;;;7.75;7.00;;;;;16.76;50.78;101754.56;4862246;29;45687;-78
2022/09/21 10:39:53;;;;;;;;;7.25;6.00;;;;;16.79;50.63;101757.81;4862646;29;45662;-78
2022/09/21 10:42:19;;;;;;;;;5.25;5.00;;;;;16.82;50.53;101755.91;4844905;29;45769;-77
2022/09/21 10:48:15;;;;;;;;;8.00;7.00;;;;;16.89;50.36;101744.72;4861065;29;45779;-78
2022/09/21 10:50:45;;;;;;;;;7.50;7.00;;;;;16.92;50.08;101747.09;4861971;29;45934;-78
2022/09/21 10:53:29;;;;;;;;;5.25;5.00;;;;;17.00;49.81;101730.63;4860857;29;47357;-85
2022/09/21 10:56:05;;;;;;;;;6.00;6.00;;;;;17.09;50.15;101745.75;4865311;29;46128;-85
2022/09/21 10:58:33;;;;;;;;;5.00;4.75;;;;;17.10;49.86;101729.75;4867618;29;45732;-85
2022/09/21 11:01:11;;;;;;;;;4.50;4.50;;;;;17.24;49.60;101746.31;4871224;29;45355;-86
2022/09/21 11:04:01;;;;;;;;;7.00;7.00;;;;;17.18;49.49;101722.03;4853946;29;45699;-84
2022/09/21 11:06:41;;;;;;;;;6.75;6.00;;;;;17.14;49.91;101703.84;4853027;29;47925;-85
2022/09/21 11:09:36;;;;;;;;;4.00;4.00;;;;;17.45;49.37;101739.28;4871370;29;45676;-84
2022/09/21 11:12:38;;;;;;;;;4.25;4.25;;;;;17.52;49.03;101738.66;4869449;29;45780;-83
2022/09/21 11:15:29;;;;;;;;;5.00;5.00;;;;;17.58;48.79;101732.88;4866678;29;46807;-91
2022/09/21 11:18:32;;;;;;;;;6.00;5.00;;;;;17.65;48.85;101733.25;4870399;29;45439;-84
2022/09/21 11:21:14;;;;;;;;;4.75;4.00;;;;;17.71;47.65;101732.69;4850278;29;45565;-78
2022/09/21 11:24:11;;;;;;;;;5.50;4.75;;;;;17.66;47.27;101721.63;4865735;29;45660;-78
2022/09/21 11:26:39;;;;;;;;;4.50;3.50;;;;;17.80;47.49;101726.66;4863870;29;45695;-79
2022/09/21 11:33:01;;;;;;;;;5.75;5.75;;;;;17.88;47.03;101712.75;4861621;29;45663;-80
2022/09/21 11:35:32;;;;;;;;;3.50;3.00;;;;;17.92;46.42;101720.31;4863593;29;45592;-79
2022/09/21 11:38:05;;;;;;;;;4.50;3.50;;;;;17.93;46.08;101719.34;4862953;29;45884;-78
2022/09/21 11:40:46;;;;;;;;;4.00;4.00;;;;;17.90;46.03;101706.34;4845019;29;46149;-80
2022/09/21 11:50:07;;;;;;;;;5.00;3.75;;;;;17.99;46.03;101691.47;4863780;29;45597;-79
2022/09/21 11:52:41;;;;;;;;;4.00;3.50;;;;;18.02;45.54;101707.97;4862613;29;46012;-76
2022/09/21 11:55:17;;;;;;;;;5.00;4.00;;;;;18.02;45.80;101694.72;4861577;29;45733;-76
2022/09/21 11:57:58;;;;;;;;;5.00;5.00;;;;;18.09;45.33;101702.97;4846043;29;45636;-78
2022/09/21 12:00:28;;;;;;;;;5.25;4.00;;;;;18.04;45.70;101689.25;4861479;29;46392;-80
2022/09/21 12:03:15;;;;;;;;;4.25;4.00;;;;;18.11;45.26;101690.41;4862219;29;46274;-78
2022/09/21 12:05:59;;;;;;;;;6.75;5.75;;;;;18.12;45.66;101691.25;4845829;29;45554;-77
2022/09/21 12:09:02;;;;;;;;;5.00;3.00;;;;;18.13;45.23;101692.94;4862153;29;45988;-80
2022/09/21 12:11:51;;;;;;;;;4.00;3.00;;;;;18.15;45.15;101697.13;4860675;29;46385;-77
2022/09/21 12:17:53;;;;;;;;;5.75;3.50;;;;;18.21;45.33;101686.00;4861448;29;45660;-77
2022/09/21 12:20:29;;;;;;;;;3.75;3.75;;;;;18.24;45.03;101701.69;4861473;29;45907;-73
2022/09/21 12:23:04;;;;;;;;;4.25;4.00;;;;;18.28;44.22;101686.31;4861531;29;47527;-79
2022/09/21 12:25:37;;;;;;;;;3.25;3.25;;;;;18.28;43.92;101688.97;4859958;29;45781;-75
2022/09/21 12:28:26;;;;;;;;;3.75;3.00;;;;;18.33;43.84;101692.06;4844739;29;45772;-76
2022/09/21 12:34:21;;;;;;;;;2.50;2.00;;;;;18.36;43.67;101676.72;4863033;29;45844;-76
2022/09/21 12:36:49;;;;;;;;;3.25;3.25;;;;;18.40;43.89;101686.13;4862712;29;45733;-77
2022/09/21 12:39:23;;;;;;;;;3.00;3.00;;;;;18.45;43.94;101677.75;4860828;29;45614;-74
2022/09/21 12:41:58;;;;;;;;;3.00;3.00;;;;;18.48;43.36;101679.28;4862551;29;45769;-75
2022/09/21 12:44:51;;;;;;;;;3.00;3.00;;;;;18.52;42.69;101680.69;4862646;29;45659;-83
2022/09/21 12:47:35;;;;;;;;;3.00;2.00;;;;;18.54;42.52;101681.41;4862888;29;45955;-81
2022/09/21 12:50:15;;;;;;;;;3.00;2.50;;;;;18.50;42.46;101658.75;4862556;29;45609;-78
2022/09/21 12:52:41;;;;;;;;;2.00;2.00;;;;;18.55;42.81;101662.72;4861642;29;45639;-75
2022/09/21 12:55:32;;;;;;;;;3.00;3.00;;;;;18.61;42.85;101662.19;4844089;29;48217;-76
2022/09/21 12:58:06;;;;;;;;;3.00;2.00;;;;;18.67;42.73;101661.66;4860170;29;46173;-76
2022/09/21 13:01:08;;;;;;;;;2.50;2.50;;;;;18.72;42.66;101654.13;4844186;29;45689;-75
2022/09/21 13:03:42;;;;;;;;;3.00;3.00;;;;;18.77;43.18;101648.41;4768831;29;45654;-82
2022/09/21 13:06:08;;;;;;;;;4.00;3.50;;;;;18.89;42.67;101662.41;4769720;29;45688;-80
2022/09/21 13:08:41;;;;;;;;;3.00;3.00;;;;;18.90;42.69;101648.13;4771010;29;46086;-78
2022/09/21 13:11:20;;;;;;;;;3.25;3.00;;;;;18.98;42.06;101657.09;4769224;29;45731;-79
2022/09/21 13:13:58;;;;;;;;;2.00;2.00;;;;;19.08;42.13;101647.31;4768816;29;45835;-73
2022/09/21 13:16:34;;;;;;;;;4.00;4.00;;;;;19.11;42.03;101651.53;4767412;29;46745;-78
2022/09/21 13:19:11;;;;;;;;;3.00;3.00;;;;;19.14;41.05;101652.09;4766981;29;46468;-80
2022/09/21 13:21:37;;;;;;;;;4.00;3.00;;;;;19.12;40.72;101647.88;4768529;29;45699;-76
2022/09/21 13:24:06;;;;;;;;;3.00;2.25;;;;;19.11;40.69;101648.88;4768259;29;45700;-79
2022/09/21 13:26:39;;;;;;;;;4.00;3.00;;;;;19.10;41.06;101645.38;4767410;29;46935;-78
2022/09/21 13:29:26;;;;;;;;;2.00;2.00;;;;;19.11;39.86;101635.59;4767664;29;46072;-80
2022/09/21 13:32:10;;;;;;;;;2.00;2.00;;;;;18.99;39.98;101616.28;4768469;29;45696;-78
2022/09/21 13:34:40;;;;;;;;;2.00;2.00;;;;;19.08;40.09;101630.53;4768997;29;45684;-77
2022/09/21 13:37:09;;;;;;;;;3.00;1.25;;;;;19.09;40.25;101632.22;4769321;29;46473;-77
2022/09/21 13:39:36;;;;;;;;;3.00;3.00;;;;;19.10;40.59;101621.47;4786085;29;45627;-75
2022/09/21 13:42:29;;;;;;;;;2.75;2.75;;;;;19.13;40.35;101629.16;4861726;29;45807;-82
2022/09/21 13:48:18;;;;;;;;;2.50;2.25;;;;;19.12;40.52;101603.56;4784565;29;46217;-76
2022/09/21 13:50:47;;;;;;;;;2.25;2.25;;;;;19.17;40.46;101590.69;4789698;29;47204;-78
2022/09/21 13:53:34;;;;;;;;;3.00;2.00;;;;;19.16;40.86;101598.81;4790035;29;45888;-76
2022/09/21 13:56:07;;;;;;;;;4.00;4.00;;;;;19.23;40.99;101610.53;4789042;29;45640;-79
2022/09/21 13:58:40;;;;;;;;;1.25;1.25;;;;;19.25;40.34;101605.94;4787521;29;46462;-78
2022/09/21 14:01:15;;;;;;;;;3.25;3.00;;;;;19.29;40.62;101610.81;4787702;29;46022;-79
2022/09/21 14:03:49;;;;;;;;;1.75;1.75;;;;;19.31;39.69;101600.06;4787771;29;45807;-78
2022/09/21 14:06:22;;;;;;;;;2.00;2.00;;;;;19.35;39.66;101603.28;4787980;29;45572;-77
2022/09/21 14:08:58;;;;;;;;;2.50;2.00;;;;;19.32;39.96;101592.94;4787918;29;47381;-77
2022/09/21 14:11:32;;;;;;;;;2.25;2.25;;;;;19.38;39.65;101597.69;4787325;29;46501;-81
2022/09/21 14:14:10;;;;;;;;;2.00;2.00;;;;;19.39;38.86;101594.03;4773225;29;45763;-78
2022/09/21 14:16:38;;;;;;;;;1.50;1.50;;;;;19.40;38.99;101593.06;4786330;29;45705;-77
2022/09/21 14:19:29;;;;;;;;;3.50;3.00;;;;;19.41;39.69;101594.72;4784053;29;46784;-74
2022/09/21 14:24:40;;;;;;;;;3.50;2.00;;;;;19.45;38.99;101580.22;4813041;29;45924;-75
2022/09/21 14:27:24;;;;;;;;;3.25;3.00;;;;;19.44;39.09;101583.81;4863163;29;45484;-77
2022/09/21 14:30:00;;;;;;;;;2.00;2.00;;;;;19.41;38.78;101576.13;4861776;29;47492;-73
2022/09/21 14:32:32;;;;;;;;;2.25;2.00;;;;;19.46;39.38;101579.22;4863923;29;46753;-79
2022/09/21 14:35:10;;;;;;;;;3.00;3.00;;;;;19.47;39.57;101578.25;4863075;29;45688;-75
2022/09/21 14:37:48;;;;;;;;;3.00;3.00;;;;;19.49;39.17;101569.13;4863882;29;45786;-77
2022/09/21 14:40:23;;;;;;;;;3.00;2.50;;;;;19.47;39.29;101576.44;4860072;29;46379;-79
2022/09/21 14:42:53;;;;;;;;;2.75;2.00;;;;;19.46;39.37;101566.78;4859514;29;46089;-76
2022/09/21 14:45:26;;;;;;;;;2.00;2.00;;;;;19.54;38.74;101566.88;4859963;29;45676;-77
2022/09/21 14:48:16;;;;;;;;;2.00;2.00;;;;;19.60;39.12;101560.16;4859903;29;45719;-80
2022/09/21 14:50:55;;;;;;;;;2.00;2.00;;;;;19.63;39.10;101565.19;4858206;29;48620;-77
2022/09/21 14:53:39;;;;;;;;;3.00;3.00;;;;;19.69;38.79;101572.59;4859202;29;47079;-79
2022/09/21 14:56:23;;;;;;;;;3.00;2.00;;;;;19.72;38.48;101569.66;4858851;29;45706;-80
2022/09/21 14:59:06;;;;;;;;;2.00;2.00;;;;;19.75;38.26;101568.53;4859499;29;45762;-77
2022/09/21 15:05:02;;;;;;;;;2.75;2.75;;;;;19.83;38.71;101560.66;4859097;29;45924;-76
2022/09/21 15:11:13;;;;;;;;;2.50;2.00;;;;;20.14;38.69;101556.72;4860612;29;45680;-78
2022/09/21 15:14:01;;;;;;;;;2.00;2.00;;;;;20.71;38.37;101549.44;4860862;29;45801;-77
2022/09/21 15:16:38;;;;;;;;;1.00;1.00;;;;;21.75;37.11;101541.41;4859155;29;46625;-77
2022/09/21 15:19:10;;;;;;;;;2.00;2.00;;;;;22.86;36.09;101536.81;4859516;29;45605;-81
2022/09/21 15:21:42;;;;;;;;;1.75;1.25;;;;;23.75;35.54;101536.75;4860983;29;45696;-80
2022/09/21 15:24:32;;;;;;;;;2.50;2.00;;;;;24.63;33.43;101535.50;4862319;29;45677;-80
2022/09/21 15:27:09;;;;;;;;;1.00;0.75;;;;;25.28;32.33;101534.16;4804834;29;47127;-83
2022/09/21 15:29:36;;;;;;;;;0.75;0.75;;;;;25.82;31.92;101538.31;4804871;29;45855;-82
2022/09/21 15:32:05;;;;;;;;;1.00;1.00;;;;;26.37;31.35;101539.66;4805068;29;45646;-76
2022/09/21 15:34:30;;;;;;;;;1.00;1.00;;;;;26.92;29.87;101530.09;4804615;29;46501;-82
2022/09/21 15:37:16;;;;;;;;;1.00;1.00;;;;;27.42;29.36;101529.06;4804684;29;46447;-80
2022/09/21 15:39:41;;;;;;;;;1.00;1.00;;;;;27.92;29.19;101528.75;4804457;29;45826;-80
2022/09/21 15:42:06;;;;;;;;;3.00;2.25;;;;;28.44;28.85;101534.59;4804593;29;45568;-80
2022/09/21 15:44:33;;;;;;;;;1.00;1.00;;;;;28.86;28.34;101528.88;4804847;29;46653;-78
2022/09/21 15:47:01;;;;;;;;;0.75;0.75;;;;;29.16;27.83;101516.63;4789187;29;46373;-77
2022/09/21 15:49:29;;;;;;;;;2.00;1.00;;;;;29.40;27.41;101527.84;4804364;29;45655;-79
2022/09/21 15:52:25;;;;;;;;;1.00;1.00;;;;;29.39;26.92;101524.31;4804604;29;45693;-74
2022/09/21 15:54:59;;;;;;;;;0.00;0.00;;;;;29.23;27.05;101522.00;4804416;29;46785;-75
2022/09/21 15:57:32;;;;;;;;;2.25;1.00;;;;;29.10;26.84;101527.41;4804181;29;47206;-74
2022/09/21 16:00:01;;;;;;;;;1.25;1.00;;;;;28.96;26.60;101523.91;4803943;29;45670;-75
2022/09/21 16:02:34;;;;;;;;;1.00;1.00;;;;;28.86;25.93;101523.47;4804229;29;45594;-75
2022/09/21 16:04:59;;;;;;;;;1.00;1.00;;;;;28.68;25.78;101532.13;4857742;29;46806;-74
2022/09/21 16:07:32;;;;;;;;;1.25;1.25;;;;;28.47;25.72;101524.22;4861474;29;46343;-78
2022/09/21 16:09:58;;;;;;;;;2.00;2.00;;;;;28.38;25.78;101520.88;4860833;29;45683;-75
2022/09/21 16:12:29;;;;;;;;;2.00;2.00;;;;;28.29;25.99;101532.88;4859617;29;45584;-75
2022/09/21 16:15:00;;;;;;;;;1.00;1.00;;;;;28.18;25.42;101525.34;4861054;29;45793;-77
2022/09/21 16:17:27;;;;;;;;;2.00;1.25;;;;;28.01;26.03;101509.72;4861012;29;45891;-81
2022/09/21 16:19:53;;;;;;;;;1.00;1.00;;;;;28.06;25.94;101518.88;4860963;29;45780;-76
2022/09/21 16:22:38;;;;;;;;;2.50;2.00;;;;;28.04;26.47;101517.41;4860355;29;45619;-79
2022/09/21 16:25:19;;;;;;;;;1.00;1.00;;;;;27.97;26.32;101525.44;4861080;29;45986;-80
2022/09/21 16:27:58;;;;;;;;;2.00;2.00;;;;;27.85;26.58;101525.22;4861339;29;45754;-78
2022/09/21 16:30:38;;;;;;;;;1.00;1.00;;;;;27.67;26.49;101518.69;4860999;29;45861;-79
2022/09/21 16:33:37;;;;;;;;;2.00;1.75;;;;;27.45;26.06;101525.97;4843297;29;45665;-78
2022/09/21 16:36:24;;;;;;;;;2.25;2.25;;;;;27.23;26.21;101521.66;4861003;29;46461;-78
2022/09/21 16:38:49;;;;;;;;;1.75;1.75;;;;;27.08;26.30;101529.84;4861133;29;46965;-80
2022/09/21 16:41:16;;;;;;;;;2.00;2.00;;;;;26.92;27.20;101532.81;4861315;29;46064;-79
2022/09/21 16:43:42;;;;;;;;;1.50;1.50;;;;;26.73;27.06;101520.78;4861722;29;45676;-81
2022/09/21 16:46:09;;;;;;;;;3.00;2.00;;;;;26.63;26.45;101531.03;4861867;29;45717;-81
2022/09/21 16:48:34;;;;;;;;;1.50;1.00;;;;;26.46;26.67;101527.75;4861196;29;46122;-79
2022/09/21 16:51:00;;;;;;;;;1.00;1.00;;;;;26.26;27.03;101532.06;4861435;29;45620;-74